createdAt,value
2023-11-23T00:00:02.440Z,18.75
2023-11-23T00:03:06.266Z,18.78
2023-11-23T00:06:09.379Z,18.90
2023-11-23T00:09:13.745Z,18.81
2023-11-23T00:12:16.580Z,18.90
2023-11-23T00:15:19.586Z,18.81
2023-11-23T00:18:22.538Z,18.80
2023-11-23T00:21:25.531Z,18.81
2023-11-23T00:24:29.990Z,18.80
2023-11-23T00:27:33.050Z,18.83
2023-11-23T00:30:35.870Z,18.81
2023-11-23T00:33:38.963Z,18.80
2023-11-23T00:36:42.016Z,18.77
2023-11-23T00:39:46.249Z,18.72
2023-11-23T00:42:49.115Z,18.64
2023-11-23T00:45:51.988Z,18.55
2023-11-23T00:48:55.998Z,18.56
2023-11-23T00:51:58.896Z,18.52
2023-11-23T00:55:05.820Z,18.41
2023-11-23T00:58:08.786Z,18.34
2023-11-23T01:01:15.464Z,18.23
2023-11-23T01:04:18.446Z,18.15
2023-11-23T01:07:21.422Z,18.11
2023-11-23T01:10:26.039Z,18.06
2023-11-23T01:13:28.938Z,18.00
2023-11-23T01:16:31.880Z,17.94
2023-11-23T01:19:34.749Z,17.93
2023-11-23T01:22:37.806Z,17.90
2023-11-23T01:25:42.071Z,17.80
2023-11-23T01:28:44.999Z,17.74
2023-11-23T01:31:47.931Z,17.72
2023-11-23T01:34:50.765Z,17.66
2023-11-23T01:37:53.695Z,17.62
2023-11-23T01:40:57.951Z,17.62
2023-11-23T01:44:01.285Z,17.58
2023-11-23T01:47:05.817Z,17.53
2023-11-23T01:50:10.965Z,17.50
2023-11-23T01:53:15.405Z,17.48
2023-11-23T01:56:21.730Z,17.48
2023-11-23T01:59:24.926Z,17.42
2023-11-23T02:02:28.043Z,17.41
2023-11-23T02:05:30.963Z,17.43
2023-11-23T02:08:33.806Z,17.34
2023-11-23T02:11:38.343Z,17.35
2023-11-23T02:14:43.070Z,17.29
2023-11-23T02:17:46.160Z,17.27
2023-11-23T02:20:49.201Z,17.26
2023-11-23T02:23:52.135Z,17.19
2023-11-23T02:26:58.692Z,17.16
2023-11-23T02:30:01.660Z,17.14
2023-11-23T02:33:05.943Z,17.11
2023-11-23T02:36:09.190Z,17.07
2023-11-23T02:39:12.120Z,17.08
2023-11-23T02:42:16.503Z,17.03
2023-11-23T02:45:19.495Z,17.01
2023-11-23T02:48:22.456Z,16.97
2023-11-23T02:51:26.510Z,17.12
2023-11-23T02:54:29.631Z,17.08
2023-11-23T02:57:34.003Z,16.99
2023-11-23T03:00:36.861Z,16.92
2023-11-23T03:03:40.055Z,16.88
2023-11-23T03:06:43.046Z,16.92
2023-11-23T03:09:45.944Z,16.98
2023-11-23T03:12:50.233Z,17.12
2023-11-23T03:15:53.290Z,17.21
2023-11-23T03:18:56.174Z,17.29
2023-11-23T03:21:59.909Z,17.37
2023-11-23T03:25:02.845Z,17.47
2023-11-23T03:28:08.578Z,17.58
2023-11-23T03:31:11.518Z,17.62
2023-11-23T03:34:14.457Z,17.66
2023-11-23T03:37:18.429Z,17.75
2023-11-23T03:40:21.306Z,17.76
2023-11-23T03:43:25.581Z,17.82
2023-11-23T03:46:28.538Z,17.84
2023-11-23T03:49:31.722Z,17.84
2023-11-23T03:52:34.564Z,17.93
2023-11-23T03:55:37.495Z,17.92
2023-11-23T03:58:41.745Z,17.93
2023-11-23T04:01:48.457Z,17.97
2023-11-23T04:04:51.356Z,17.94
2023-11-23T04:07:54.215Z,18.01
2023-11-23T04:10:57.030Z,18.01
2023-11-23T04:14:01.318Z,18.01
2023-11-23T04:17:04.145Z,18.04
2023-11-23T04:20:07.731Z,18.04
2023-11-23T04:23:12.746Z,18.06
2023-11-23T04:26:15.795Z,18.09
2023-11-23T04:29:20.185Z,18.07
2023-11-23T04:32:23.436Z,18.10
2023-11-23T04:35:26.288Z,18.14
2023-11-23T04:38:29.215Z,18.14
2023-11-23T04:41:32.062Z,18.17
2023-11-23T04:44:36.343Z,18.17
2023-11-23T04:47:39.185Z,18.16
2023-11-23T04:50:42.654Z,18.20
2023-11-23T04:53:45.756Z,18.19
2023-11-23T04:56:51.663Z,18.19
2023-11-23T04:59:56.053Z,18.15
2023-11-23T05:02:59.102Z,18.12
2023-11-23T05:06:02.733Z,18.05
2023-11-23T05:09:05.838Z,18.02
2023-11-23T05:12:09.163Z,17.96
2023-11-23T05:15:13.542Z,17.93
2023-11-23T05:18:17.181Z,17.86
2023-11-23T05:21:20.177Z,17.79
2023-11-23T05:24:23.116Z,17.72
2023-11-23T05:27:26.137Z,17.68
2023-11-23T05:30:30.474Z,17.60
2023-11-23T05:33:33.449Z,17.57
2023-11-23T05:36:36.425Z,17.52
2023-11-23T05:39:43.433Z,17.49
2023-11-23T05:42:57.482Z,17.48
2023-11-23T05:46:06.088Z,17.42
2023-11-23T05:49:09.771Z,17.38
2023-11-23T05:52:12.688Z,17.35
2023-11-23T05:55:16.562Z,17.32
2023-11-23T05:58:19.425Z,17.31
2023-11-23T06:01:23.705Z,17.25
2023-11-23T06:04:26.826Z,17.22
2023-11-23T06:07:30.665Z,17.19
2023-11-23T06:10:35.533Z,17.16
2023-11-23T06:13:38.567Z,17.11
2023-11-23T06:16:42.838Z,17.11
2023-11-23T06:19:45.725Z,17.07
2023-11-23T06:22:49.491Z,17.02
2023-11-23T06:25:52.408Z,17.03
2023-11-23T06:28:55.317Z,17.02
2023-11-23T06:32:01.377Z,17.01
2023-11-23T06:35:06.013Z,16.96
2023-11-23T06:38:08.909Z,16.92
2023-11-23T06:41:19.620Z,16.88
2023-11-23T06:44:22.917Z,16.89
2023-11-23T06:47:27.218Z,16.83
2023-11-23T06:50:30.019Z,16.81
2023-11-23T06:53:33.000Z,16.83
2023-11-23T06:56:35.820Z,16.77
2023-11-23T06:59:38.705Z,16.76
2023-11-23T07:02:43.023Z,16.75
2023-11-23T07:05:45.906Z,16.74
2023-11-23T07:08:49.059Z,16.68
2023-11-23T07:11:55.430Z,16.68
2023-11-23T07:14:58.511Z,16.67
2023-11-23T07:18:02.943Z,16.64
2023-11-23T07:21:06.192Z,16.64
2023-11-23T07:24:09.564Z,16.64
2023-11-23T07:27:13.002Z,16.61
2023-11-23T07:30:16.033Z,16.60
2023-11-23T07:33:20.493Z,16.54
2023-11-23T07:36:25.440Z,16.56
2023-11-23T07:39:28.380Z,16.52
2023-11-23T07:42:31.322Z,16.54
2023-11-23T07:45:34.678Z,16.52
2023-11-23T07:48:39.084Z,16.55
2023-11-23T07:51:41.984Z,16.51
2023-11-23T07:54:45.340Z,16.48
2023-11-23T07:57:49.489Z,16.47
2023-11-23T08:00:52.443Z,16.45
2023-11-23T08:03:57.763Z,16.42
2023-11-23T08:07:01.756Z,16.45
2023-11-23T08:10:07.780Z,16.41
2023-11-23T08:13:10.656Z,16.33
2023-11-23T08:16:13.740Z,16.55
2023-11-23T08:19:18.225Z,16.67
2023-11-23T08:22:22.751Z,16.72
2023-11-23T08:25:25.635Z,16.81
2023-11-23T08:28:28.512Z,16.89
2023-11-23T08:31:31.402Z,17.02
2023-11-23T08:34:35.682Z,17.09
2023-11-23T08:37:38.586Z,17.17
2023-11-23T08:40:42.805Z,17.24
2023-11-23T08:44:05.575Z,17.32
2023-11-23T08:47:08.459Z,17.39
2023-11-23T08:50:14.731Z,17.41
2023-11-23T08:53:21.710Z,17.48
2023-11-23T08:56:24.600Z,17.47
2023-11-23T08:59:27.521Z,17.54
2023-11-23T09:02:30.456Z,17.57
2023-11-23T09:05:34.811Z,17.59
2023-11-23T09:08:37.721Z,17.62
2023-11-23T09:11:42.818Z,17.64
2023-11-23T09:14:49.516Z,17.66
2023-11-23T09:17:54.492Z,17.70
2023-11-23T09:21:01.103Z,17.69
2023-11-23T09:24:07.141Z,17.73
2023-11-23T09:27:11.244Z,17.77
2023-11-23T09:30:14.675Z,17.76
2023-11-23T09:33:20.477Z,17.82
2023-11-23T09:36:26.060Z,17.85
2023-11-23T09:39:29.135Z,17.85
2023-11-23T09:42:36.855Z,17.88
2023-11-23T09:45:39.886Z,17.91
2023-11-23T09:48:44.777Z,17.94
2023-11-23T09:51:50.698Z,17.93
2023-11-23T09:54:57.904Z,17.94
2023-11-23T09:58:00.886Z,17.96
2023-11-23T10:01:04.805Z,17.97
2023-11-23T10:04:07.972Z,18.03
2023-11-23T10:07:13.226Z,18.06
2023-11-23T10:10:16.433Z,18.05
2023-11-23T10:13:20.656Z,18.04
2023-11-23T10:16:23.638Z,18.06
2023-11-23T10:19:26.644Z,18.06
2023-11-23T10:22:32.119Z,18.06
2023-11-23T10:25:36.831Z,18.09
2023-11-23T10:28:40.013Z,18.07
2023-11-23T10:31:42.957Z,18.12
2023-11-23T10:34:48.002Z,18.13
2023-11-23T10:37:54.682Z,18.12
2023-11-23T10:41:00.143Z,18.06
2023-11-23T10:44:04.658Z,17.97
2023-11-23T10:47:10.624Z,17.90
2023-11-23T10:50:13.605Z,17.84
2023-11-23T10:53:18.021Z,17.80
2023-11-23T10:56:22.990Z,17.78
2023-11-23T10:59:26.380Z,17.73
2023-11-23T11:02:29.415Z,17.70
2023-11-23T11:05:32.997Z,17.63
2023-11-23T11:08:39.110Z,17.56
2023-11-23T11:11:44.315Z,17.50
2023-11-23T11:14:51.998Z,17.43
2023-11-23T11:18:08.005Z,17.40
2023-11-23T11:21:13.171Z,17.34
2023-11-23T11:24:21.724Z,17.32
2023-11-23T11:27:26.867Z,17.29
2023-11-23T11:30:35.150Z,17.20
2023-11-23T11:33:38.861Z,17.21
2023-11-23T11:36:42.181Z,17.18
2023-11-23T11:39:47.560Z,17.20
2023-11-23T11:42:52.026Z,17.19
2023-11-23T11:45:54.992Z,17.30
2023-11-23T11:48:59.193Z,17.35
2023-11-23T11:52:02.344Z,17.38
2023-11-23T11:55:07.519Z,17.49
2023-11-23T11:58:10.438Z,17.61
2023-11-23T12:01:13.822Z,17.64
2023-11-23T12:04:17.682Z,17.70
2023-11-23T12:07:20.865Z,17.77
2023-11-23T12:10:25.187Z,17.82
2023-11-23T12:13:28.247Z,17.83
2023-11-23T12:16:35.084Z,17.90
2023-11-23T12:19:38.072Z,17.89
2023-11-23T12:22:41.059Z,17.92
2023-11-23T12:25:45.382Z,17.94
2023-11-23T12:28:48.700Z,17.98
2023-11-23T12:31:51.594Z,18.15
2023-11-23T12:34:54.453Z,18.08
2023-11-23T12:37:59.309Z,18.25
2023-11-23T12:41:04.462Z,18.15
2023-11-23T12:44:07.396Z,18.04
2023-11-23T12:47:10.276Z,17.95
2023-11-23T12:50:13.158Z,17.95
2023-11-23T12:53:15.985Z,17.94
2023-11-23T12:56:20.327Z,17.98
2023-11-23T12:59:23.255Z,17.94
2023-11-23T13:02:26.150Z,17.84
2023-11-23T13:05:30.860Z,17.94
2023-11-23T13:08:33.699Z,17.80
2023-11-23T13:11:38.452Z,17.65
2023-11-23T13:14:42.775Z,17.60
2023-11-23T13:17:45.787Z,17.50
2023-11-23T13:20:49.035Z,17.49
2023-11-23T13:23:52.014Z,17.43
2023-11-23T13:26:57.219Z,17.36
2023-11-23T13:30:01.075Z,17.37
2023-11-23T13:33:13.623Z,17.37
2023-11-23T13:36:16.697Z,17.32
2023-11-23T13:39:20.851Z,17.29
2023-11-23T13:42:25.380Z,17.29
2023-11-23T13:45:28.480Z,17.24
2023-11-23T13:48:32.626Z,17.32
2023-11-23T13:51:36.095Z,17.39
2023-11-23T13:54:39.448Z,17.42
2023-11-23T13:57:43.840Z,17.46
2023-11-23T14:00:46.724Z,17.66
2023-11-23T14:03:50.361Z,17.61
2023-11-23T14:06:53.548Z,17.67
2023-11-23T14:09:56.356Z,17.80
2023-11-23T14:13:01.344Z,17.85
2023-11-23T14:16:05.418Z,18.04
2023-11-23T14:19:15.996Z,18.33
2023-11-23T14:22:20.026Z,18.20
2023-11-23T14:25:23.786Z,18.33
2023-11-23T14:28:28.139Z,18.03
2023-11-23T14:31:34.150Z,17.95
2023-11-23T14:34:37.255Z,17.96
2023-11-23T14:37:41.997Z,18.15
2023-11-23T14:40:47.757Z,18.15
2023-11-23T14:43:52.303Z,18.06
2023-11-23T14:46:56.664Z,18.03
2023-11-23T14:50:01.250Z,18.06
2023-11-23T14:53:05.178Z,18.07
2023-11-23T14:56:09.343Z,18.15
2023-11-23T14:59:13.652Z,18.06
2023-11-23T15:02:16.631Z,18.08
2023-11-23T15:05:20.005Z,18.08
2023-11-23T15:08:22.992Z,18.08
2023-11-23T15:11:25.830Z,18.11
2023-11-23T15:14:30.075Z,18.12
2023-11-23T15:17:33.448Z,18.13
2023-11-23T15:20:36.351Z,18.14
2023-11-23T15:23:39.520Z,18.14
2023-11-23T15:26:42.442Z,18.17
2023-11-23T15:29:46.672Z,18.13
2023-11-23T15:32:53.805Z,18.17
2023-11-23T15:35:57.383Z,18.18
2023-11-23T15:39:00.232Z,18.18
2023-11-23T15:42:04.529Z,18.10
2023-11-23T15:45:09.735Z,18.03
2023-11-23T15:48:13.000Z,17.97
2023-11-23T15:51:16.540Z,17.93
2023-11-23T15:54:20.423Z,17.85
2023-11-23T15:57:23.466Z,17.81
2023-11-23T16:00:27.850Z,17.75
2023-11-23T16:03:30.850Z,17.71
2023-11-23T16:06:38.282Z,17.90
2023-11-23T16:09:41.530Z,17.69
2023-11-23T16:12:45.584Z,17.59
2023-11-23T16:15:50.342Z,17.55
2023-11-23T16:18:53.737Z,17.53
2023-11-23T16:21:57.104Z,17.49
2023-11-23T16:25:03.173Z,17.46
2023-11-23T16:28:06.125Z,17.52
2023-11-23T16:31:10.499Z,17.39
2023-11-23T16:34:14.630Z,17.33
2023-11-23T16:37:17.620Z,17.31
2023-11-23T16:40:21.012Z,17.24
2023-11-23T16:43:23.931Z,17.21
2023-11-23T16:46:28.204Z,17.19
2023-11-23T16:49:31.190Z,17.16
2023-11-23T16:52:34.348Z,17.11
2023-11-23T16:55:38.633Z,17.06
2023-11-23T16:58:42.056Z,17.07
2023-11-23T17:01:47.529Z,16.98
2023-11-23T17:04:53.043Z,16.93
2023-11-23T17:07:58.258Z,16.76
2023-11-23T17:11:01.192Z,16.88
2023-11-23T17:14:04.658Z,16.83
2023-11-23T17:17:09.186Z,16.83
2023-11-23T17:20:14.221Z,16.84
2023-11-23T17:23:17.153Z,16.92
2023-11-23T17:26:20.446Z,16.98
2023-11-23T17:29:23.686Z,17.16
2023-11-23T17:32:27.962Z,17.12
2023-11-23T17:35:30.966Z,17.34
2023-11-23T17:38:35.092Z,17.28
2023-11-23T17:41:37.976Z,17.36
2023-11-23T17:44:41.096Z,17.41
2023-11-23T17:47:46.418Z,17.43
2023-11-23T17:50:49.518Z,17.51
2023-11-23T17:53:52.518Z,17.53
2023-11-23T17:56:56.703Z,17.56
2023-11-23T17:59:59.669Z,17.59
2023-11-23T18:03:03.998Z,17.61
2023-11-23T18:06:07.914Z,17.64
2023-11-23T18:09:10.926Z,17.68
2023-11-23T18:12:13.987Z,17.99
2023-11-23T18:15:16.878Z,17.82
2023-11-23T18:18:24.189Z,17.83
2023-11-23T18:21:28.299Z,17.89
2023-11-23T18:24:31.428Z,17.95
2023-11-23T18:27:34.393Z,17.86
2023-11-23T18:30:37.463Z,17.85
2023-11-23T18:33:42.035Z,17.87
2023-11-23T18:36:46.528Z,17.90
2023-11-23T18:39:50.220Z,17.91
2023-11-23T18:42:54.791Z,17.91
2023-11-23T18:45:58.010Z,17.92
2023-11-23T18:49:03.958Z,17.90
2023-11-23T18:52:07.239Z,17.95
2023-11-23T18:55:11.389Z,17.96
2023-11-23T18:58:14.413Z,18.01
2023-11-23T19:01:18.762Z,17.99
2023-11-23T19:04:23.831Z,17.99
2023-11-23T19:07:26.988Z,18.01
2023-11-23T19:10:29.835Z,17.99
2023-11-23T19:13:32.722Z,18.04
2023-11-23T19:16:35.670Z,18.03
2023-11-23T19:19:40.638Z,18.00
2023-11-23T19:22:43.913Z,18.05
2023-11-23T19:25:48.067Z,17.93
2023-11-23T19:28:51.652Z,17.83
2023-11-23T19:31:56.027Z,17.76
2023-11-23T19:35:00.743Z,17.68
2023-11-23T19:38:05.392Z,17.67
2023-11-23T19:41:10.810Z,17.58
2023-11-23T19:44:14.309Z,17.53
2023-11-23T19:47:18.067Z,17.52
2023-11-23T19:50:23.125Z,17.44
2023-11-23T19:53:27.963Z,17.41
2023-11-23T19:56:30.885Z,17.35
2023-11-23T19:59:33.785Z,17.41
2023-11-23T20:02:36.822Z,17.35
2023-11-23T20:05:42.326Z,17.37
2023-11-23T20:08:45.429Z,17.29
2023-11-23T20:11:48.285Z,17.28
2023-11-23T20:14:51.194Z,17.20
2023-11-23T20:17:54.149Z,17.17
2023-11-23T20:20:58.500Z,17.12
2023-11-23T20:24:01.380Z,17.11
2023-11-23T20:27:04.311Z,17.14
2023-11-23T20:30:07.862Z,16.99
2023-11-23T20:33:10.829Z,16.99
2023-11-23T20:36:15.206Z,16.98
2023-11-23T20:39:18.169Z,17.11
2023-11-23T20:42:21.346Z,17.07
2023-11-23T20:45:26.025Z,17.26
2023-11-23T20:48:28.879Z,17.17
2023-11-23T20:51:33.215Z,17.23
2023-11-23T20:54:36.207Z,17.31
2023-11-23T20:57:39.519Z,17.42
2023-11-23T21:00:42.717Z,17.49
2023-11-23T21:03:46.179Z,17.50
2023-11-23T21:06:58.955Z,17.61
2023-11-23T21:10:05.870Z,17.62
2023-11-23T21:13:08.861Z,17.67
2023-11-23T21:16:13.371Z,17.72
2023-11-23T21:19:16.267Z,17.71
2023-11-23T21:22:20.707Z,17.71
2023-11-23T21:25:23.548Z,17.74
2023-11-23T21:28:26.419Z,17.78
2023-11-23T21:31:29.657Z,17.81
2023-11-23T21:34:32.609Z,17.81
2023-11-23T21:37:37.133Z,17.83
2023-11-23T21:40:40.042Z,17.86
2023-11-23T21:43:43.408Z,17.93
2023-11-23T21:46:46.446Z,18.19
2023-11-23T21:49:49.419Z,17.96
2023-11-23T21:52:55.230Z,18.16
2023-11-23T21:55:58.356Z,17.98
2023-11-23T21:59:01.238Z,17.94
2023-11-23T22:02:05.322Z,17.94
2023-11-23T22:05:08.695Z,17.94
2023-11-23T22:08:13.020Z,17.97
2023-11-23T22:11:15.903Z,17.97
2023-11-23T22:14:19.164Z,18.47
2023-11-23T22:17:22.233Z,18.11
2023-11-23T22:20:25.369Z,18.07
2023-11-23T22:23:29.984Z,18.21
2023-11-23T22:26:33.165Z,18.11
2023-11-23T22:29:36.243Z,18.08
2023-11-23T22:32:41.043Z,18.08
2023-11-23T22:35:44.867Z,18.12
2023-11-23T22:38:50.077Z,18.13
2023-11-23T22:41:53.174Z,18.11
2023-11-23T22:44:56.315Z,18.13
2023-11-23T22:47:59.222Z,18.13
2023-11-23T22:51:02.202Z,18.16
2023-11-23T22:54:07.361Z,18.15
2023-11-23T22:57:10.305Z,18.18
2023-11-23T23:00:15.656Z,18.19
2023-11-23T23:03:19.333Z,18.22
2023-11-23T23:06:22.418Z,18.19
2023-11-23T23:09:28.354Z,18.21
2023-11-23T23:12:31.871Z,18.22
2023-11-23T23:15:34.867Z,18.21
2023-11-23T23:18:37.940Z,18.23
2023-11-23T23:21:40.900Z,18.31
2023-11-23T23:24:45.230Z,18.28
2023-11-23T23:27:48.136Z,18.26
2023-11-23T23:30:51.002Z,18.29
2023-11-23T23:33:53.935Z,18.29
2023-11-23T23:36:56.889Z,18.32
2023-11-23T23:40:01.139Z,18.33
2023-11-23T23:43:04.083Z,18.35
2023-11-23T23:46:07.048Z,18.32
2023-11-23T23:49:09.958Z,18.35
2023-11-23T23:52:12.854Z,18.34
2023-11-23T23:55:17.247Z,18.36
2023-11-23T23:58:20.144Z,18.36
